This is the latest recevied weather packets stored in our database for station/object SQ5RTW-1. If no packets are shown the sender has not sent any weather packets the latest 10 day(s).
| Time | Temp. | Humidity | Pressure | Rain* | Wind** | Luminosity | Snow |
|---|---|---|---|---|---|---|---|
| 1777514291 | 0° C | 65% | 1033 hPa | - | - | - | - |
| 1777513390 | 0.56° C | 64% | 1032.9 hPa | - | - | - | - |
| 1777512489 | 0.56° C | 63% | 1033 hPa | - | - | - | - |
| 1777511589 | 0.56° C | 62% | 1032.8 hPa | - | - | - | - |
| 1777510687 | 1.11° C | 61% | 1032.8 hPa | - | - | - | - |
| 1777509786 | 1.67° C | 60% | 1032.7 hPa | - | - | - | - |
| 1777508885 | 1.67° C | 61% | 1032.8 hPa | - | - | - | - |
| 1777507985 | 1.11° C | 62% | 1032.7 hPa | - | - | - | - |
| 1777507084 | 1.67° C | 63% | 1032.7 hPa | - | - | - | - |
| 1777506183 | 1.67° C | 63% | 1032.7 hPa | - | - | - | - |
| 1777505282 | 1.67° C | 64% | 1032.6 hPa | - | - | - | - |
| 1777504381 | 1.67° C | 65% | 1032.6 hPa | - | - | - | - |
| 1777503480 | 1.67° C | 67% | 1032.6 hPa | - | - | - | - |
| 1777502579 | 2.22° C | 65% | 1032.7 hPa | - | - | - | - |
| 1777501679 | 2.22° C | 64% | 1032.6 hPa | - | - | - | - |
| 1777500778 | 2.78° C | 61% | 1032.4 hPa | - | - | - | - |
| 1777499877 | 3.33° C | 58% | 1032.5 hPa | - | - | - | - |
| 1777498976 | 3.33° C | 58% | 1032.4 hPa | - | - | - | - |
| 1777498075 | 2.78° C | 64% | 1032.2 hPa | - | - | - | - |
| 1777497174 | 2.78° C | 66% | 1032.3 hPa | - | - | - | - |
| 1777496273 | 3.33° C | 63% | 1032.2 hPa | - | - | - | - |
| 1777495372 | 3.89° C | 61% | 1032.3 hPa | - | - | - | - |
| 1777494472 | 5° C | 59% | 1032.3 hPa | - | - | - | - |
| 1777493571 | 5.56° C | 57% | 1032.2 hPa | - | - | - | - |
| 1777492670 | 5° C | 62% | 1032.1 hPa | - | - | - | - |
* Rain since midnight (hover to see other rain measurements)
** Current wind speed in m/s (hover to see current wind gust speed)